Time;durP1;ratioP1;P1;durP2;ratioP2;P2;SDS_P1;SDS_P2;PMS_P1;PMS_P2;Temp;Humidity;BMP_temperature;BMP_pressure;BME280_temperature;BME280_humidity;BME280_pressure;Samples;Min_cycle;Max_cycle;Signal;HPM_P1;HPM_P2
2023/10/27 00:03:21;;;;;;;11.18;6.30;;;;;;;14.28;65.95;97964.06;7737072;32;40540;-79
2023/10/27 00:07:37;;;;;;;12.50;6.10;;;;;;;14.35;65.67;97959.94;7737056;32;38798;-79
2023/10/27 00:11:53;;;;;;;11.55;5.95;;;;;;;14.18;66.27;97955.50;7737283;32;37330;-78
2023/10/27 00:16:10;;;;;;;10.90;5.45;;;;;;;14.30;65.90;97951.94;7737267;32;39366;-78
2023/10/27 00:20:27;;;;;;;17.20;6.20;;;;;;;14.31;65.76;97945.34;7736816;32;40017;-79
2023/10/27 00:24:44;;;;;;;21.42;5.78;;;;;;;14.31;65.90;97940.66;7736583;32;38469;-79
2023/10/27 00:29:00;;;;;;;9.90;5.85;;;;;;;14.27;66.06;97929.56;7736845;32;37081;-79
2023/10/27 00:33:16;;;;;;;13.13;6.43;;;;;;;14.32;65.44;97925.81;7736828;32;39598;-79
2023/10/27 00:37:34;;;;;;;11.82;6.55;;;;;;;14.17;66.39;97916.31;7736806;32;40681;-79
2023/10/27 00:41:50;;;;;;;15.40;6.95;;;;;;;14.24;66.37;97902.84;7736218;32;37857;-79
2023/10/27 00:46:06;;;;;;;13.90;6.87;;;;;;;14.30;66.32;97905.34;7727608;32;279196;-80
2023/10/27 00:50:23;;;;;;;13.88;6.40;;;;;;;14.35;66.33;97892.25;7736350;32;40183;-79
2023/10/27 00:54:39;;;;;;;13.62;6.37;;;;;;;14.30;66.51;97902.63;7736159;32;40615;-80
2023/10/27 00:58:57;;;;;;;12.45;6.12;;;;;;;14.35;66.38;97907.88;7722201;32;38062;-79
2023/10/27 01:03:13;;;;;;;10.98;6.37;;;;;;;14.41;66.19;97917.47;7736038;32;37946;-79
2023/10/27 01:07:29;;;;;;;14.95;6.30;;;;;;;14.33;66.62;97923.88;7735771;32;40233;-79
2023/10/27 01:11:46;;;;;;;13.68;6.40;;;;;;;14.51;66.17;97908.78;7721868;32;39986;-79
2023/10/27 01:16:03;;;;;;;13.20;6.72;;;;;;;14.51;66.26;97910.75;7721731;32;37631;-79
2023/10/27 01:20:20;;;;;;;21.00;7.22;;;;;;;14.50;66.38;97901.69;7737217;32;37131;-79
2023/10/27 01:24:36;;;;;;;13.77;7.07;;;;;;;14.03;68.32;97896.69;7738994;32;39982;-79
2023/10/27 01:28:53;;;;;;;15.68;7.47;;;;;;;14.25;67.49;97895.44;7739023;32;40969;-79
2023/10/27 01:33:09;;;;;;;13.32;6.87;;;;;;;14.36;67.42;97895.78;7739384;32;38517;-79
2023/10/27 01:37:25;;;;;;;12.57;6.87;;;;;;;14.53;67.18;97894.75;7738802;32;37360;-79
2023/10/27 01:41:42;;;;;;;13.73;6.30;;;;;;;14.49;67.29;97893.81;7739466;32;40218;-79
2023/10/27 01:45:58;;;;;;;13.25;7.45;;;;;;;14.72;66.95;97883.22;7738654;32;40816;-79
2023/10/27 01:50:14;;;;;;;14.73;6.95;;;;;;;14.57;67.62;97882.75;7739060;32;38617;-80
2023/10/27 01:54:31;;;;;;;11.50;6.47;;;;;;;14.61;67.71;97875.44;7739393;32;37206;-79
2023/10/27 01:58:47;;;;;;;15.15;8.32;;;;;;;14.63;67.80;97861.41;7738395;32;40019;-79
2023/10/27 02:03:03;;;;;;;13.27;7.43;;;;;;;14.57;68.17;97862.75;7739080;32;39676;-79
2023/10/27 02:07:23;;;;;;;16.50;8.10;;;;;;;14.15;69.61;97857.53;7738793;32;38127;-80
2023/10/27 02:11:40;;;;;;;15.15;7.90;;;;;;;14.33;68.91;97841.63;7739268;32;38140;-79
2023/10/27 02:15:56;;;;;;;13.25;7.72;;;;;;;14.43;68.81;97838.44;7738971;32;39386;-79
2023/10/27 02:20:13;;;;;;;15.82;7.40;;;;;;;14.66;67.88;97836.03;7738459;32;39614;-79
2023/10/27 02:24:29;;;;;;;16.73;7.45;;;;;;;14.49;68.74;97828.84;7738782;32;37572;-79
2023/10/27 02:28:46;;;;;;;12.02;7.05;;;;;;;14.40;69.04;97839.09;7738682;32;37193;-79
2023/10/27 02:33:02;;;;;;;12.68;6.65;;;;;;;14.52;68.50;97817.19;7737715;32;39361;-79
2023/10/27 02:37:18;;;;;;;30.83;8.43;;;;;;;14.10;69.92;97814.72;7738569;32;39951;-79
2023/10/27 02:41:36;;;;;;;12.93;6.95;;;;;;;14.07;69.97;97826.34;7738603;32;37555;-79
2023/10/27 02:46:01;;;;;;;19.17;7.95;;;;;;;14.23;69.72;97832.75;7738377;32;37206;-80
2023/10/27 02:50:18;;;;;;;41.00;8.88;;;;;;;14.14;70.12;97821.09;7737817;32;40074;-79
2023/10/27 02:54:34;;;;;;;15.43;7.78;;;;;;;14.12;69.93;97815.16;7738901;32;38505;-79
2023/10/27 02:58:51;;;;;;;14.52;7.12;;;;;;;14.22;70.09;97809.22;7738337;32;37936;-78
2023/10/27 03:03:07;;;;;;;12.55;6.68;;;;;;;14.30;69.97;97809.44;7738414;32;37174;-78
2023/10/27 03:07:24;;;;;;;17.98;6.80;;;;;;;14.49;69.39;97804.16;7738240;32;39382;-79
2023/10/27 03:11:40;;;;;;;14.20;6.85;;;;;;;14.58;68.91;97795.78;7737799;32;39943;-78
2023/10/27 03:16:00;;;;;;;12.52;7.12;;;;;;;14.71;68.55;97785.59;7737811;32;38025;-78
2023/10/27 03:20:17;;;;;;;15.48;7.90;;;;;;;14.33;69.77;97787.62;7737800;32;37205;-78
2023/10/27 03:24:33;;;;;;;15.43;7.15;;;;;;;14.61;68.93;97773.19;7738150;32;39114;-77
2023/10/27 03:28:49;;;;;;;14.18;7.43;;;;;;;14.57;69.11;97770.34;7737853;32;39680;-79
2023/10/27 03:33:05;;;;;;;14.38;7.47;;;;;;;14.67;68.69;97760.03;7737837;32;38643;-79
2023/10/27 03:37:22;;;;;;;14.07;6.85;;;;;;;14.53;69.45;97752.97;7738028;32;38178;-80
2023/10/27 03:41:38;;;;;;;12.02;7.55;;;;;;;14.65;69.14;97736.50;7737548;32;39375;-79
2023/10/27 03:45:54;;;;;;;18.48;8.05;;;;;;;14.93;68.73;97737.63;7737470;32;40014;-78
2023/10/27 03:50:11;;;;;;;11.30;6.90;;;;;;;14.50;69.81;97723.50;7737209;32;39252;-79
2023/10/27 03:54:28;;;;;;;12.77;7.43;;;;;;;14.39;70.98;97714.19;7723771;32;37633;-79
2023/10/27 03:58:44;;;;;;;18.48;6.72;;;;;;;14.60;70.21;97703.84;7737604;32;40095;-80
2023/10/27 04:03:06;;;;;;;14.18;8.05;;;;;;;14.65;70.39;97687.12;7737625;32;40585;-80
2023/10/27 04:07:22;;;;;;;141.15;12.32;;;;;;;14.80;70.02;97674.59;7737214;32;38680;-80
2023/10/27 04:11:39;;;;;;;349.00;19.10;;;;;;;14.54;70.87;97676.97;7737178;32;38085;-80
2023/10/27 04:15:55;;;;;;;11.98;7.70;;;;;;;14.48;70.49;97681.94;7737040;32;39163;-80
2023/10/27 04:20:11;;;;;;;10.70;6.70;;;;;;;14.79;69.73;97664.00;7736337;32;40819;-79
2023/10/27 04:24:28;;;;;;;10.23;6.05;;;;;;;14.82;69.64;97655.84;7736825;32;38038;-78
2023/10/27 04:28:44;;;;;;;9.45;5.78;;;;;;;14.89;69.62;97644.28;7736831;32;37075;-79
2023/10/27 04:33:01;;;;;;;11.38;5.93;;;;;;;15.04;69.49;97631.72;7736884;32;39833;-79
2023/10/27 04:37:17;;;;;;;8.80;4.95;;;;;;;15.05;70.41;97622.31;7736640;32;40581;-80
2023/10/27 04:41:34;;;;;;;6.00;3.83;;;;;;;15.19;69.96;97616.37;7736257;32;38784;-79
2023/10/27 04:45:50;;;;;;;6.90;4.35;;;;;;;15.38;69.49;97605.50;7736378;32;37836;-79
2023/10/27 04:50:08;;;;;;;5.55;3.40;;;;;;;15.37;69.74;97597.59;7735979;32;39566;-79
2023/10/27 04:54:25;;;;;;;5.32;2.90;;;;;;;15.40;69.85;97583.16;7737184;32;40212;-79
2023/10/27 04:58:42;;;;;;;8.52;2.40;;;;;;;15.45;69.87;97571.09;7739511;32;38504;-79
2023/10/27 05:02:58;;;;;;;6.15;3.08;;;;;;;15.42;70.20;97572.63;7739785;32;37305;-79
2023/10/27 05:07:15;;;;;;;3.28;2.10;;;;;;;15.44;70.26;97569.53;7739789;32;39394;-78
2023/10/27 05:11:31;;;;;;;3.12;2.20;;;;;;;15.61;69.68;97558.12;7725700;32;39652;-79
2023/10/27 05:15:54;;;;;;;2.40;2.03;;;;;;;15.56;69.68;97542.72;7739626;32;37943;-79
2023/10/27 05:20:11;;;;;;;3.80;2.00;;;;;;;15.55;70.11;97537.59;7739570;32;37919;-80
2023/10/27 05:24:27;;;;;;;5.03;1.77;;;;;;;15.53;70.14;97524.22;7739267;32;39077;-80
2023/10/27 05:28:43;;;;;;;2.35;1.62;;;;;;;15.61;69.85;97525.19;7739023;32;39956;-79
2023/10/27 05:33:00;;;;;;;2.08;1.67;;;;;;;15.44;70.08;97520.09;7739425;32;37958;-80
2023/10/27 05:37:16;;;;;;;1.60;1.50;;;;;;;15.48;70.37;97515.47;7739468;32;37091;-80
2023/10/27 05:41:32;;;;;;;1.60;1.42;;;;;;;15.53;70.29;97512.44;7739270;32;39427;-80
2023/10/27 05:45:48;;;;;;;2.55;1.50;;;;;;;15.54;70.33;97508.56;7739106;32;40046;-80
2023/10/27 05:50:07;;;;;;;2.03;1.30;;;;;;;15.43;71.08;97496.53;7739139;32;38358;-80
2023/10/27 05:54:23;;;;;;;1.55;1.00;;;;;;;15.44;71.09;97484.41;7739544;32;36349;-79
2023/10/27 05:58:39;;;;;;;0.77;0.77;;;;;;;15.56;71.05;97478.78;7738842;32;39989;-79
2023/10/27 06:02:56;;;;;;;3.70;1.10;;;;;;;15.47;71.69;97475.44;7739047;32;40174;-79
2023/10/27 06:07:15;;;;;;;1.85;1.23;;;;;;;15.40;72.05;97479.63;7738965;32;37883;-87
2023/10/27 06:11:32;;;;;;;0.98;0.85;;;;;;;15.29;74.11;97464.88;7739051;32;36977;-79
2023/10/27 06:15:48;;;;;;;2.33;1.30;;;;;;;15.58;73.24;97459.97;7724831;32;40207;-76
2023/10/27 06:20:05;;;;;;;5.57;1.00;;;;;;;15.87;73.41;97455.09;7738201;32;41016;-79
2023/10/27 06:24:33;;;;;;;3.40;0.95;;;;;;;15.92;72.20;97435.56;7738805;32;37921;-79
2023/10/27 06:28:49;;;;;;;1.35;0.82;;;;;;;16.01;71.39;97433.34;7738070;32;37894;-86
2023/10/27 06:33:06;;;;;;;2.22;0.82;;;;;;;16.05;71.41;97417.72;7737921;32;40186;-94
2023/10/27 06:37:23;;;;;;;0.80;0.80;;;;;;;16.09;71.25;97417.78;7740662;32;41127;-92
2023/10/27 06:41:40;;;;;;;0.70;0.70;;;;;;;16.00;71.47;97419.97;7738050;32;38022;-86
2023/10/27 06:45:56;;;;;;;0.50;0.50;;;;;;;16.11;71.27;97410.78;7738237;32;36967;-85
2023/10/27 06:50:13;;;;;;;1.52;0.80;;;;;;;15.77;72.69;97412.50;7736827;32;40118;-84
2023/10/27 06:54:29;;;;;;;0.65;0.65;;;;;;;16.12;71.62;97395.84;7737448;32;39635;-84
2023/10/27 06:58:46;;;;;;;0.65;0.60;;;;;;;16.20;71.41;97387.75;7737904;32;38826;-84
2023/10/27 07:03:02;;;;;;;1.15;0.70;;;;;;;15.87;73.13;97380.91;7738425;32;37133;-84
2023/10/27 07:07:22;;;;;;;1.02;0.70;;;;;;;15.98;72.44;97383.84;7738389;32;39430;-84
2023/10/27 07:11:44;;;;;;;3.40;0.88;;;;;;;15.88;73.11;97371.50;7738309;32;40000;-85
2023/10/27 07:16:01;;;;;;;1.73;0.90;;;;;;;15.84;73.74;97368.69;7738027;32;37805;-84
2023/10/27 07:20:20;;;;;;;0.68;0.68;;;;;;;15.52;75.18;97357.88;7724110;32;36993;-85
2023/10/27 07:24:36;;;;;;;3.15;1.02;;;;;;;15.61;74.88;97367.81;7711263;32;40204;-84
2023/10/27 07:28:53;;;;;;;1.40;0.90;;;;;;;15.93;73.61;97340.97;7711213;32;40089;-86
2023/10/27 07:33:10;;;;;;;1.00;0.95;;;;;;;15.65;74.43;97333.78;7725131;32;38450;-81
2023/10/27 07:37:28;;;;;;;1.37;1.27;;;;;;;15.98;73.55;97339.88;7724473;32;37773;-82
2023/10/27 07:41:45;;;;;;;2.60;1.40;;;;;;;15.39;75.17;97334.50;7737616;32;40446;-82
2023/10/27 07:46:01;;;;;;;3.90;1.67;;;;;;;15.63;74.32;97330.63;7737062;32;40210;-82
2023/10/27 07:50:18;;;;;;;1.65;1.55;;;;;;;15.95;73.36;97333.13;7737380;32;37858;-82
2023/10/27 07:54:34;;;;;;;2.05;1.80;;;;;;;15.74;73.95;97315.09;7737696;32;37432;-81
2023/10/27 07:58:51;;;;;;;2.97;1.70;;;;;;;15.87;73.66;97312.22;7737694;32;40181;-80
2023/10/27 08:03:07;;;;;;;2.15;1.87;;;;;;;16.03;73.37;97298.34;7737583;32;40674;-81
2023/10/27 08:07:24;;;;;;;2.92;1.85;;;;;;;16.19;72.64;97295.44;7736631;32;38149;-83
2023/10/27 08:11:40;;;;;;;2.45;2.00;;;;;;;15.94;73.60;97293.09;7737094;32;37050;-83
2023/10/27 08:15:57;;;;;;;3.58;2.17;;;;;;;15.93;73.17;97278.56;7737293;32;39466;-80
2023/10/27 08:20:15;;;;;;;8.98;2.58;;;;;;;15.92;73.35;97265.22;7737171;32;40975;-80
2023/10/27 08:24:31;;;;;;;4.28;2.35;;;;;;;15.81;74.65;97259.53;7737001;32;37796;-81
2023/10/27 08:28:47;;;;;;;3.30;2.25;;;;;;;16.04;72.93;97229.28;7737134;32;36908;-81
2023/10/27 08:33:04;;;;;;;3.47;2.20;;;;;;;16.02;73.59;97220.59;8055269;26;39377;-75
2023/10/27 08:37:20;;;;;;;3.03;2.33;;;;;;;16.00;73.28;97206.44;7794127;32;40727;-75
2023/10/27 08:41:37;;;;;;;4.25;2.58;;;;;;;16.08;72.44;97201.84;7794080;32;38765;-76
2023/10/27 08:45:57;;;;;;;3.67;2.70;;;;;;;16.12;73.02;97192.47;7794173;32;36033;-75
2023/10/27 08:50:16;;;;;;;6.10;3.40;;;;;;;16.15;72.15;97175.25;7794202;32;39355;-76
2023/10/27 08:54:37;;;;;;;3.97;2.80;;;;;;;15.59;75.14;97186.94;7765339;32;40002;-76
2023/10/27 08:58:54;;;;;;;6.00;3.28;;;;;;;16.27;71.18;97165.97;7769276;32;37946;-76
2023/10/27 09:03:17;;;;;;;10.32;3.37;;;;;;;16.09;72.03;97154.75;7778387;32;37044;-75
2023/10/27 09:07:34;;;;;;;;;;;;;;;16.33;72.02;97156.25;7773471;32;39380;-75
2023/10/27 09:11:51;;;;;;;5.37;3.00;;;;;;;16.30;71.55;97136.97;7768762;32;39927;-75
2023/10/27 09:16:09;;;;;;;6.18;3.22;;;;;;;16.38;71.56;97130.34;7793208;32;37871;-76
2023/10/27 09:20:26;;;;;;;5.10;3.08;;;;;;;16.41;71.53;97126.09;7777391;32;38025;-75
2023/10/27 09:24:43;;;;;;;3.87;3.00;;;;;;;16.33;72.48;97114.19;7766501;32;39583;-75
2023/10/27 09:29:01;;;;;;;4.97;2.83;;;;;;;16.37;71.08;97119.72;7766423;32;40809;-75
2023/10/27 09:33:23;;;;;;;7.97;3.45;;;;;;;16.47;70.36;97099.81;7766246;32;38622;-75
2023/10/27 09:37:43;;;;;;;5.97;3.43;;;;;;;16.75;69.68;97091.09;7766371;32;37047;-76
2023/10/27 09:42:07;;;;;;;5.70;3.87;;;;;;;16.70;70.04;97077.69;7766077;32;40529;-82
2023/10/27 09:46:24;;;;;;;4.60;3.70;;;;;;;16.63;70.52;97055.59;7766370;32;40714;-80
2023/10/27 09:50:45;;;;;;;5.87;3.70;;;;;;;16.80;69.49;97054.16;7752214;32;38688;-81
2023/10/27 09:55:05;;;;;;;8.50;4.10;;;;;;;16.74;69.49;97048.22;7752262;32;36976;-81
2023/10/27 09:59:31;;;;;;;5.72;3.97;;;;;;;16.70;69.52;97044.66;7761835;32;40244;-76
2023/10/27 10:03:51;;;;;;;8.38;4.22;;;;;;;16.82;69.22;97033.38;7792840;32;39900;-76
2023/10/27 10:08:09;;;;;;;7.95;3.83;;;;;;;16.99;67.97;96995.38;7792337;32;38735;-76
2023/10/27 10:12:25;;;;;;;7.75;3.50;;;;;;;17.04;68.02;96997.78;7779049;32;37125;-76
2023/10/27 10:16:45;;;;;;;10.80;3.33;;;;;;;17.05;67.41;96969.09;7792899;32;39469;-77
2023/10/27 10:21:01;;;;;;;6.18;3.58;;;;;;;17.23;67.92;96988.47;7779111;32;40861;-76
2023/10/27 10:25:21;;;;;;;4.20;2.97;;;;;;;16.78;68.98;96980.28;7770856;32;38018;-76
2023/10/27 10:29:38;;;;;;;4.12;2.42;;;;;;;17.19;68.14;96960.13;7789316;32;37364;-77
2023/10/27 10:34:09;;;;;;;7.28;3.33;;;;;;;16.70;69.42;96984.16;7792828;32;39023;-76
2023/10/27 10:38:25;;;;;;;5.35;2.50;;;;;;;16.93;69.86;96991.44;7790814;32;40029;-76
2023/10/27 10:43:30;;;;;;;4.03;2.17;;;;;;;16.77;69.91;96972.41;7765375;32;38691;-76
2023/10/27 10:47:46;;;;;;;3.42;1.60;;;;;;;16.44;72.54;96954.88;7765609;32;37161;-80
2023/10/27 10:52:03;;;;;;;4.15;1.75;;;;;;;16.31;73.43;96963.38;7764429;32;39418;-80
2023/10/27 10:56:19;;;;;;;6.30;1.25;;;;;;;16.30;73.55;96985.78;7765299;32;40837;-79
2023/10/27 11:00:36;;;;;;;3.50;1.20;;;;;;;16.59;71.46;96977.75;7772001;32;37861;-80
2023/10/27 11:09:26;;;;;;;4.57;1.55;;;;;;;16.44;73.15;97020.84;7748013;26;20124;-81
2023/10/27 11:13:57;;;;;;;2.37;1.30;;;;;;;16.17;75.16;97025.69;7670769;32;39881;-80
2023/10/27 11:18:14;;;;;;;2.60;1.60;;;;;;;16.03;74.30;97035.34;7683342;32;38635;-81
2023/10/27 11:22:30;;;;;;;5.87;1.65;;;;;;;15.98;75.77;97032.91;7683561;32;37098;-81
2023/10/27 11:26:47;;;;;;;2.12;1.30;;;;;;;16.09;75.34;97066.00;7682512;32;39394;-81
2023/10/27 11:31:08;;;;;;;1.58;1.33;;;;;;;16.18;75.28;97068.47;7684554;32;39872;-81
2023/10/27 11:35:25;;;;;;;1.48;1.20;;;;;;;15.90;76.96;97080.69;7684674;32;38467;-78
2023/10/27 11:39:42;;;;;;;1.67;1.00;;;;;;;16.13;76.14;97088.84;7682366;32;38023;-78
2023/10/27 11:43:59;;;;;;;0.80;0.80;;;;;;;15.62;77.98;97090.09;7671404;32;39725;-78
2023/10/27 11:48:16;;;;;;;1.83;1.02;;;;;;;15.61;77.87;97083.03;7669764;32;40016;-77
2023/10/27 11:52:33;;;;;;;1.10;1.00;;;;;;;15.36;79.29;97060.72;7670540;32;38109;-75
2023/10/27 11:56:49;;;;;;;2.03;1.05;;;;;;;15.38;78.26;97058.37;7670547;32;37865;-77
2023/10/27 12:01:06;;;;;;;0.98;0.98;;;;;;;15.08;80.71;97063.81;7669652;32;38942;-78
2023/10/27 12:05:23;;;;;;;2.40;0.80;;;;;;;15.42;79.37;97053.75;7670619;32;40846;-78
2023/10/27 12:09:39;;;;;;;1.77;1.10;;;;;;;15.20;80.66;97016.97;7628512;32;37992;-78
2023/10/27 12:13:56;;;;;;;0.85;0.85;;;;;;;15.27;80.54;97038.25;7630683;32;38056;-78
2023/10/27 12:18:14;;;;;;;1.55;1.00;;;;;;;15.38;80.68;97067.44;7631048;32;40069;-79
2023/10/27 12:22:31;;;;;;;1.05;1.00;;;;;;;14.75;82.77;97093.47;7630365;32;39963;-80
2023/10/27 12:26:47;;;;;;;0.88;0.88;;;;;;;15.06;80.05;97124.56;7630143;32;38799;-79
2023/10/27 12:31:04;;;;;;;1.80;1.02;;;;;;;14.72;81.99;97149.03;7630254;32;37731;-79
2023/10/27 12:35:21;;;;;;;3.87;2.35;;;;;;;14.44;82.25;97146.50;7630080;32;39183;-79
2023/10/27 12:39:42;;;;;;;1.33;1.25;;;;;;;14.57;81.69;97166.34;7629988;32;39668;-79
2023/10/27 12:43:59;;;;;;;0.80;0.80;;;;;;;14.53;80.07;97166.25;7629786;32;38653;-79
2023/10/27 12:48:17;;;;;;;1.23;0.95;;;;;;;14.17;81.30;97192.16;7629773;32;35678;-79
2023/10/27 12:52:33;;;;;;;2.28;0.90;;;;;;;14.19;80.43;97204.31;7627610;32;40102;-79
2023/10/27 12:56:51;;;;;;;13.02;6.78;;;;;;;14.09;80.24;97204.91;7629446;32;40191;-79
2023/10/27 13:01:11;;;;;;;1.12;1.12;;;;;;;13.96;80.20;97201.47;7629416;32;38464;-79
2023/10/27 13:05:28;;;;;;;0.93;0.93;;;;;;;13.70;78.15;97177.44;7629765;32;37604;-79
2023/10/27 13:09:45;;;;;;;1.58;0.90;;;;;;;13.78;78.32;97223.00;7668746;32;39428;-79
2023/10/27 13:14:02;;;;;;;1.10;1.10;;;;;;;13.87;76.20;97245.50;7668045;32;39582;-80
2023/10/27 13:18:18;;;;;;;1.48;1.27;;;;;;;13.42;77.35;97251.41;7672532;32;37741;-80
2023/10/27 13:22:35;;;;;;;2.25;1.33;;;;;;;13.75;76.18;97256.56;7674887;32;37132;-78
2023/10/27 13:26:52;;;;;;;1.20;1.12;;;;;;;13.78;75.41;97135.37;7671509;32;39331;-79
2023/10/27 13:31:11;;;;;;;1.85;1.40;;;;;;;13.92;75.36;97277.31;7672178;32;39867;-79
2023/10/27 13:35:27;;;;;;;1.85;1.58;;;;;;;13.30;75.99;97277.69;7671678;32;37281;-79
2023/10/27 13:39:44;;;;;;;1.50;1.40;;;;;;;13.64;74.98;97280.94;7659127;32;37182;-79
2023/10/27 13:44:07;;;;;;;3.17;1.70;;;;;;;13.34;75.13;97305.97;7672645;32;39871;-79
2023/10/27 13:48:24;;;;;;;2.20;1.25;;;;;;;13.28;75.91;97296.41;7674276;32;39750;-79
2023/10/27 13:52:41;;;;;;;2.87;2.00;;;;;;;13.39;75.34;97312.34;7671011;32;37940;-79
2023/10/27 13:56:58;;;;;;;3.75;2.25;;;;;;;13.51;75.54;97304.06;7672526;32;38290;-79
2023/10/27 14:01:18;;;;;;;3.50;1.87;;;;;;;13.29;76.16;97289.00;7672590;32;40183;-79
2023/10/27 14:05:36;;;;;;;1.90;1.20;;;;;;;13.49;74.86;97296.19;7672111;32;40108;-79
2023/10/27 14:09:52;;;;;;;1.37;1.20;;;;;;;13.79;73.88;97325.09;7664889;32;37578;-79
2023/10/27 14:14:09;;;;;;;2.78;1.80;;;;;;;13.56;74.62;97339.38;7672519;32;37026;-79
2023/10/27 14:18:27;;;;;;;1.20;1.10;;;;;;;13.73;74.44;97365.63;7663335;32;40646;-80
2023/10/27 14:22:46;;;;;;;5.07;2.50;;;;;;;13.26;75.70;97401.84;7658819;32;40023;-80
2023/10/27 14:27:05;;;;;;;2.53;1.70;;;;;;;13.25;75.26;97387.41;7671060;32;38178;-79
2023/10/27 14:31:23;;;;;;;2.05;1.50;;;;;;;13.36;74.02;97404.13;7671370;32;36247;-80
2023/10/27 14:35:40;;;;;;;1.15;1.10;;;;;;;13.26;74.10;97410.88;7656054;32;39416;-78
2023/10/27 14:40:00;;;;;;;1.35;1.00;;;;;;;13.56;73.53;97418.78;7657790;32;39735;-80
2023/10/27 14:44:16;;;;;;;1.20;1.10;;;;;;;13.69;73.82;97414.03;7657637;32;37406;-79
2023/10/27 14:48:32;;;;;;;4.18;2.33;;;;;;;13.60;73.47;97427.88;7658854;32;37281;-79
2023/10/27 14:52:52;;;;;;;2.53;1.52;;;;;;;13.48;73.27;97445.13;7657588;32;39269;-79
2023/10/27 14:57:09;;;;;;;1.58;1.15;;;;;;;13.49;73.08;97454.94;7658812;32;40871;-80
2023/10/27 15:01:26;;;;;;;1.10;1.00;;;;;;;13.46;73.36;97461.09;7658652;32;38527;-79
2023/10/27 15:05:44;;;;;;;1.10;1.00;;;;;;;13.43;73.37;97478.22;7658549;32;37366;-80
2023/10/27 15:10:01;;;;;;;3.33;1.20;;;;;;;13.31;73.65;97491.91;7658667;32;40308;-81
2023/10/27 15:14:17;;;;;;;4.03;1.30;;;;;;;13.26;73.81;97511.31;7658501;32;39961;-80
2023/10/27 15:18:34;;;;;;;1.30;1.10;;;;;;;13.00;74.96;97531.63;7657296;32;38746;-77
2023/10/27 15:22:51;;;;;;;2.58;1.20;;;;;;;13.59;72.85;97540.44;7658532;32;37133;-81
2023/10/27 15:27:07;;;;;;;1.95;1.15;;;;;;;13.47;72.39;97549.47;7658414;32;39366;-81
2023/10/27 15:31:24;;;;;;;3.62;1.58;;;;;;;13.26;72.93;97586.00;7657670;32;39976;-81
2023/10/27 15:35:41;;;;;;;2.92;1.37;;;;;;;13.05;73.80;97594.28;7646868;32;38587;-80
2023/10/27 15:39:58;;;;;;;2.22;1.52;;;;;;;13.15;73.43;97585.63;7660219;32;37027;-80
2023/10/27 15:44:15;;;;;;;4.30;3.00;;;;;;;13.07;73.48;97597.50;7670613;32;40074;-80
2023/10/27 15:48:31;;;;;;;2.45;1.42;;;;;;;12.85;74.54;97609.69;7669880;32;40018;-80
2023/10/27 15:52:48;;;;;;;2.55;1.20;;;;;;;13.43;72.25;97626.00;7669214;32;38367;-80
2023/10/27 15:57:19;;;;;;;4.05;1.25;;;;;;;13.34;72.33;97628.06;7670090;32;37096;-80
2023/10/27 16:01:48;;;;;;;2.92;1.58;;;;;;;13.29;72.60;97655.63;7665541;32;39495;-80
2023/10/27 16:06:05;;;;;;;2.53;1.80;;;;;;;12.66;74.19;97664.91;7656423;32;40901;-81
2023/10/27 16:10:22;;;;;;;3.53;2.28;;;;;;;13.09;72.25;97681.94;7656937;32;38388;-80
2023/10/27 16:14:39;;;;;;;5.25;2.80;;;;;;;12.84;73.23;97675.66;7655722;32;37781;-80
2023/10/27 16:18:56;;;;;;;5.65;2.55;;;;;;;13.24;72.25;97675.03;7655888;32;39096;-81
2023/10/27 16:23:15;;;;;;;3.62;1.90;;;;;;;12.82;73.37;97695.12;7657101;32;40161;-80
2023/10/27 16:27:31;;;;;;;2.83;2.05;;;;;;;12.86;72.99;97692.50;7656239;32;38077;-81
2023/10/27 16:31:48;;;;;;;2.33;1.60;;;;;;;13.19;72.15;97697.13;7657162;32;38592;-81
2023/10/27 16:36:05;;;;;;;1.75;1.60;;;;;;;12.81;73.46;97725.53;7648167;32;39353;-81
2023/10/27 16:40:26;;;;;;;3.75;1.87;;;;;;;12.84;73.47;97731.13;7656428;32;40255;-80
2023/10/27 16:44:45;;;;;;;2.30;1.63;;;;;;;12.60;74.71;97748.22;7655470;32;37679;-80
2023/10/27 16:49:02;;;;;;;2.40;1.87;;;;;;;12.51;75.49;97758.44;7656013;32;37377;-81
2023/10/27 16:53:20;;;;;;;3.55;1.87;;;;;;;12.75;74.36;97758.56;7659435;32;39430;-80
2023/10/27 16:57:36;;;;;;;3.28;2.15;;;;;;;12.66;74.62;97773.41;7659148;32;40561;-80
2023/10/27 17:01:54;;;;;;;2.00;1.80;;;;;;;12.64;75.21;97781.97;7659533;32;38666;-80
2023/10/27 17:06:11;;;;;;;2.17;1.73;;;;;;;12.66;74.99;97784.34;7681670;32;39381;-80
2023/10/27 17:10:30;;;;;;;3.28;1.95;;;;;;;12.70;75.15;97785.31;7685085;32;39417;-79
2023/10/27 17:14:53;;;;;;;4.43;1.80;;;;;;;13.08;73.60;97798.78;7684981;32;40863;-81
2023/10/27 17:19:12;;;;;;;3.20;2.00;;;;;;;12.52;76.04;97818.25;7684499;32;37563;-82
2023/10/27 17:23:32;;;;;;;10.52;3.95;;;;;;;12.65;76.23;97819.09;7685736;32;36771;-81
2023/10/27 17:27:48;;;;;;;5.20;2.10;;;;;;;12.57;76.75;97814.50;7685188;32;40186;-81
2023/10/27 17:32:06;;;;;;;7.57;4.15;;;;;;;12.38;77.45;97834.06;7685372;32;40743;-81
2023/10/27 17:36:27;;;;;;;2.83;2.03;;;;;;;12.47;77.42;97828.56;7675361;32;37300;-80
2023/10/27 17:40:44;;;;;;;3.47;1.90;;;;;;;12.72;76.34;97832.25;7679457;32;37898;-80
2023/10/27 17:45:00;;;;;;;7.37;3.47;;;;;;;12.69;76.65;97832.91;7686094;32;39055;-81
2023/10/27 17:49:17;;;;;;;2.55;1.90;;;;;;;12.54;76.66;97854.25;7685748;32;40964;-81
2023/10/27 17:53:33;;;;;;;3.22;2.20;;;;;;;12.59;76.32;97861.44;7685223;32;37805;-81
2023/10/27 17:57:50;;;;;;;4.65;2.78;;;;;;;12.25;77.67;97868.72;7685566;32;37234;-82
2023/10/27 18:02:07;;;;;;;3.47;1.83;;;;;;;12.39;76.90;97890.34;7684918;32;40135;-82
2023/10/27 18:06:23;;;;;;;1.92;1.75;;;;;;;12.23;76.36;97902.94;7671933;32;40703;-82
2023/10/27 18:10:41;;;;;;;1.80;1.70;;;;;;;12.36;75.39;97915.59;7671921;32;37974;-83
2023/10/27 18:14:58;;;;;;;2.28;1.83;;;;;;;12.40;75.51;97924.75;7672326;32;36880;-82
2023/10/27 18:19:14;;;;;;;1.48;1.37;;;;;;;12.37;74.68;97942.59;7685525;32;39057;-82
2023/10/27 18:23:31;;;;;;;2.67;1.70;;;;;;;12.36;74.26;97946.44;7660629;32;39988;-82
2023/10/27 18:27:48;;;;;;;1.60;1.50;;;;;;;12.56;73.45;97965.97;7677092;32;37582;-81
2023/10/27 18:32:06;;;;;;;1.92;1.73;;;;;;;12.66;72.87;97982.00;7665269;32;36799;-82
2023/10/27 18:36:24;;;;;;;3.50;1.52;;;;;;;12.08;75.35;97983.53;7672415;32;38305;-82
2023/10/27 18:40:40;;;;;;;2.03;1.65;;;;;;;12.43;74.41;97989.66;7679363;32;41745;-81
2023/10/27 18:44:57;;;;;;;1.70;1.60;;;;;;;12.23;74.75;97985.72;7672579;32;38627;-80
2023/10/27 18:49:13;;;;;;;2.45;1.85;;;;;;;12.24;74.26;97986.53;7679730;32;37872;-81
2023/10/27 18:53:31;;;;;;;2.10;1.75;;;;;;;12.44;73.33;97995.94;7684904;32;40653;-81
2023/10/27 18:57:52;;;;;;;5.32;2.78;;;;;;;12.47;72.96;97998.00;7685094;32;40230;-82
2023/10/27 19:02:08;;;;;;;3.78;2.00;;;;;;;12.59;71.80;98006.31;7684256;32;37539;-81
2023/10/27 19:06:25;;;;;;;2.45;2.00;;;;;;;12.57;72.85;98006.66;7684906;32;37253;-81
2023/10/27 19:10:44;;;;;;;2.72;1.65;;;;;;;12.27;73.33;98007.72;7684826;32;39464;-82
2023/10/27 19:15:02;;;;;;;6.95;2.00;;;;;;;12.62;72.00;98016.59;7683916;32;40596;-82
2023/10/27 19:19:18;;;;;;;4.95;2.50;;;;;;;12.49;71.39;98026.63;7684789;32;38445;-81
2023/10/27 19:23:39;;;;;;;4.10;2.50;;;;;;;12.82;70.48;98034.19;7684107;32;37278;-81
2023/10/27 19:27:55;;;;;;;4.43;2.47;;;;;;;12.85;70.09;98044.47;7669510;32;39396;-81
2023/10/27 19:32:12;;;;;;;2.58;2.03;;;;;;;12.75;69.94;98037.44;7659950;32;40748;-81
2023/10/27 19:36:29;;;;;;;2.92;2.37;;;;;;;13.20;68.42;98038.00;7658783;32;38438;-82
2023/10/27 19:40:46;;;;;;;6.05;2.85;;;;;;;13.01;68.81;98050.19;7667745;32;37125;-82
2023/10/27 19:45:03;;;;;;;4.03;2.50;;;;;;;12.54;70.33;98053.78;7683616;32;39516;-82
2023/10/27 19:49:19;;;;;;;2.45;1.45;;;;;;;12.24;70.71;98069.28;7681674;32;40792;-81
2023/10/27 19:53:36;;;;;;;1.90;1.58;;;;;;;11.89;71.05;98073.97;7683861;32;39011;-81
2023/10/27 19:57:52;;;;;;;2.65;1.50;;;;;;;11.87;70.99;98081.69;7675335;32;36711;-82
2023/10/27 20:02:09;;;;;;;1.50;1.40;;;;;;;11.85;69.41;98090.19;7657871;32;39492;-80
2023/10/27 20:06:25;;;;;;;1.87;1.20;;;;;;;12.22;67.58;98093.38;7657541;32;40886;-80
2023/10/27 20:10:43;;;;;;;2.22;1.20;;;;;;;12.28;67.09;98103.03;7673811;32;37921;-79
2023/10/27 20:14:59;;;;;;;2.58;1.37;;;;;;;12.12;67.20;98110.13;7670354;32;37831;-80